Launceston Airport, Tasmania

8:15 AM AEST on August 28, 2016 (GMT +1000)
8 Drummond Crescent | | Change Station

Elev 545 ft 41.58 °S, 147.17 °E | Updated 49 seconds ago

Clear
Clear
44.9 °F
Feels Like 45 °F
N
0.0
Wind Variable Wind from ENE
Gusts 4.0 mph

Today
High -- | Low -- °F
--% Chance of Precip.
Yesterday
High -- | Low -- °F
Precip. -- in
Pressure 29.98 in
Visibility 6.2 miles
Clouds
Windchill 45 °F
Dew Point 36 °F
Humidity 71%
Rainfall 0.07 in
Snow Depth Not available.
6:42 AM 5:42 PM
Waning Crescent, 21% visible
METAR YMLT 272200Z AUTO 08001KT 9999 // NCD 06/02 Q1015
Pressure 29.98 in
Visibility 6.2 miles
Clouds
Windchill 45 °F
Dew Point 36 °F
Humidity 71%
Rainfall 0.07 in
Snow Depth Not available.
6:42 AM 5:42 PM
Waning Crescent, 21% visible
METAR YMLT 272200Z AUTO 08001KT 9999 // NCD 06/02 Q1015

10-Day Weather Forecast

No radar image for this location.
×

Almanac

Astronomy

Aug. 28, 2016 Rise Set
Actual Time
Civil Twilight
Nautical Twilight
Astronomical Twilight
Moon
Length of Visible Light
Length of Day
Tomorrow will be .
, % of the Moon is Illuminated

Today's Extremes

Country Highs Country Lows

Community

WunderPhotos

Upload Photos

1,935,455 photos uploaded!

WunderBlog® & News

Nearby

Air Quality

  Air Quality AQ Index Pollutant
Not available.

Snow Depth

Station Depth Elevation

Earthquake Activity

City Distance Mag. Time & Date
Minimum magnitude displayed is 2.5.

Coastal Water Temperatures

Place Temperature

Stations

Nearby Weather Stations

Station Location Temp. Windchill Dew Point Humidity Wind Precip. Elev Updated Type